sensor_id;sensor_type;location;lat;lon;timestamp;P1;durP1;ratioP1;P2;durP2;ratioP2
57730;SDS011;43570;47.476;19.040;2023-03-01T00:01:06;14.80;;;11.43;;
57730;SDS011;43570;47.476;19.040;2023-03-01T00:03:33;16.85;;;12.70;;
57730;SDS011;43570;47.476;19.040;2023-03-01T00:05:59;16.52;;;12.35;;
57730;SDS011;43570;47.476;19.040;2023-03-01T00:08:25;17.17;;;12.40;;
57730;SDS011;43570;47.476;19.040;2023-03-01T00:13:38;17.00;;;13.30;;
57730;SDS011;43570;47.476;19.040;2023-03-01T00:16:04;16.40;;;13.85;;
57730;SDS011;43570;47.476;19.040;2023-03-01T00:18:31;18.35;;;14.50;;
57730;SDS011;43570;47.476;19.040;2023-03-01T00:20:57;21.25;;;15.90;;
57730;SDS011;43570;47.476;19.040;2023-03-01T00:23:22;18.08;;;15.00;;
57730;SDS011;43570;47.476;19.040;2023-03-01T00:25:49;19.25;;;15.60;;
57730;SDS011;43570;47.476;19.040;2023-03-01T00:28:14;17.37;;;14.02;;
57730;SDS011;43570;47.476;19.040;2023-03-01T00:30:40;16.70;;;14.40;;
57730;SDS011;43570;47.476;19.040;2023-03-01T00:33:05;18.45;;;15.48;;
57730;SDS011;43570;47.476;19.040;2023-03-01T00:35:34;18.92;;;14.55;;
57730;SDS011;43570;47.476;19.040;2023-03-01T00:38:00;18.75;;;14.57;;
57730;SDS011;43570;47.476;19.040;2023-03-01T00:40:26;19.92;;;16.77;;
57730;SDS011;43570;47.476;19.040;2023-03-01T00:42:53;21.15;;;15.35;;
57730;SDS011;43570;47.476;19.040;2023-03-01T00:45:18;20.17;;;16.30;;
57730;SDS011;43570;47.476;19.040;2023-03-01T00:47:44;21.42;;;16.73;;
57730;SDS011;43570;47.476;19.040;2023-03-01T00:50:10;22.33;;;16.62;;
57730;SDS011;43570;47.476;19.040;2023-03-01T00:52:36;22.62;;;16.62;;
57730;SDS011;43570;47.476;19.040;2023-03-01T00:55:02;19.40;;;16.50;;
57730;SDS011;43570;47.476;19.040;2023-03-01T00:57:28;20.88;;;16.80;;
57730;SDS011;43570;47.476;19.040;2023-03-01T00:59:53;19.05;;;15.77;;
57730;SDS011;43570;47.476;19.040;2023-03-01T01:02:19;22.08;;;16.73;;
57730;SDS011;43570;47.476;19.040;2023-03-01T01:04:44;19.35;;;15.75;;
57730;SDS011;43570;47.476;19.040;2023-03-01T01:07:10;17.62;;;14.87;;
57730;SDS011;43570;47.476;19.040;2023-03-01T01:09:36;16.70;;;13.05;;
57730;SDS011;43570;47.476;19.040;2023-03-01T01:12:01;16.65;;;12.90;;
57730;SDS011;43570;47.476;19.040;2023-03-01T01:14:27;17.30;;;13.23;;
57730;SDS011;43570;47.476;19.040;2023-03-01T01:16:53;18.15;;;13.75;;
57730;SDS011;43570;47.476;19.040;2023-03-01T01:19:18;17.62;;;12.95;;
57730;SDS011;43570;47.476;19.040;2023-03-01T01:21:43;18.98;;;14.73;;
57730;SDS011;43570;47.476;19.040;2023-03-01T01:24:10;17.52;;;13.57;;
57730;SDS011;43570;47.476;19.040;2023-03-01T01:26:36;15.70;;;13.30;;
57730;SDS011;43570;47.476;19.040;2023-03-01T01:29:02;15.93;;;13.07;;
57730;SDS011;43570;47.476;19.040;2023-03-01T01:31:29;17.50;;;13.35;;
57730;SDS011;43570;47.476;19.040;2023-03-01T01:33:55;19.27;;;15.13;;
57730;SDS011;43570;47.476;19.040;2023-03-01T01:36:20;19.25;;;13.90;;
57730;SDS011;43570;47.476;19.040;2023-03-01T01:38:46;15.93;;;12.82;;
57730;SDS011;43570;47.476;19.040;2023-03-01T01:41:12;16.25;;;12.50;;
57730;SDS011;43570;47.476;19.040;2023-03-01T01:43:39;17.10;;;13.50;;
57730;SDS011;43570;47.476;19.040;2023-03-01T01:48:54;16.70;;;13.80;;
57730;SDS011;43570;47.476;19.040;2023-03-01T01:51:27;17.87;;;14.20;;
57730;SDS011;43570;47.476;19.040;2023-03-01T01:53:58;18.33;;;14.30;;
57730;SDS011;43570;47.476;19.040;2023-03-01T01:56:24;18.52;;;13.62;;
57730;SDS011;43570;47.476;19.040;2023-03-01T01:58:50;17.42;;;14.05;;
57730;SDS011;43570;47.476;19.040;2023-03-01T02:01:16;18.83;;;14.23;;
57730;SDS011;43570;47.476;19.040;2023-03-01T02:03:42;21.65;;;14.00;;
57730;SDS011;43570;47.476;19.040;2023-03-01T02:08:55;17.65;;;13.85;;
57730;SDS011;43570;47.476;19.040;2023-03-01T02:11:23;17.37;;;14.07;;
57730;SDS011;43570;47.476;19.040;2023-03-01T02:13:48;18.00;;;13.62;;
57730;SDS011;43570;47.476;19.040;2023-03-01T02:16:14;20.85;;;14.87;;
57730;SDS011;43570;47.476;19.040;2023-03-01T02:18:40;16.70;;;13.30;;
57730;SDS011;43570;47.476;19.040;2023-03-01T02:23:58;16.87;;;13.32;;
57730;SDS011;43570;47.476;19.040;2023-03-01T02:28:49;15.48;;;12.02;;
57730;SDS011;43570;47.476;19.040;2023-03-01T02:31:17;15.23;;;11.45;;
57730;SDS011;43570;47.476;19.040;2023-03-01T02:34:02;15.70;;;11.65;;
57730;SDS011;43570;47.476;19.040;2023-03-01T02:36:31;17.62;;;12.48;;
57730;SDS011;43570;47.476;19.040;2023-03-01T02:39:00;15.15;;;11.45;;
57730;SDS011;43570;47.476;19.040;2023-03-01T02:41:28;15.63;;;11.52;;
57730;SDS011;43570;47.476;19.040;2023-03-01T02:43:57;18.60;;;11.93;;
57730;SDS011;43570;47.476;19.040;2023-03-01T02:46:23;14.43;;;11.43;;
57730;SDS011;43570;47.476;19.040;2023-03-01T02:48:51;16.62;;;11.93;;
57730;SDS011;43570;47.476;19.040;2023-03-01T02:56:52;15.38;;;11.95;;
57730;SDS011;43570;47.476;19.040;2023-03-01T02:59:19;15.30;;;11.70;;
57730;SDS011;43570;47.476;19.040;2023-03-01T03:01:46;18.10;;;12.23;;
57730;SDS011;43570;47.476;19.040;2023-03-01T03:04:17;16.73;;;11.68;;
57730;SDS011;43570;47.476;19.040;2023-03-01T03:06:45;15.77;;;12.50;;
57730;SDS011;43570;47.476;19.040;2023-03-01T03:09:12;15.73;;;11.25;;
57730;SDS011;43570;47.476;19.040;2023-03-01T03:11:38;15.52;;;11.95;;
57730;SDS011;43570;47.476;19.040;2023-03-01T03:14:05;14.27;;;11.55;;
57730;SDS011;43570;47.476;19.040;2023-03-01T03:16:47;14.45;;;11.45;;
57730;SDS011;43570;47.476;19.040;2023-03-01T03:19:14;15.15;;;12.02;;
57730;SDS011;43570;47.476;19.040;2023-03-01T03:21:41;17.42;;;12.52;;
57730;SDS011;43570;47.476;19.040;2023-03-01T03:24:07;13.88;;;11.30;;
57730;SDS011;43570;47.476;19.040;2023-03-01T03:26:32;18.05;;;12.88;;
57730;SDS011;43570;47.476;19.040;2023-03-01T03:28:58;15.98;;;12.40;;
57730;SDS011;43570;47.476;19.040;2023-03-01T03:31:23;16.55;;;12.63;;
57730;SDS011;43570;47.476;19.040;2023-03-01T03:33:49;14.70;;;11.60;;
57730;SDS011;43570;47.476;19.040;2023-03-01T03:36:15;15.98;;;12.25;;
57730;SDS011;43570;47.476;19.040;2023-03-01T03:38:44;13.80;;;11.23;;
57730;SDS011;43570;47.476;19.040;2023-03-01T03:41:10;17.65;;;11.23;;
57730;SDS011;43570;47.476;19.040;2023-03-01T03:43:37;15.48;;;11.73;;
57730;SDS011;43570;47.476;19.040;2023-03-01T03:46:04;15.95;;;11.75;;
57730;SDS011;43570;47.476;19.040;2023-03-01T03:48:34;15.82;;;12.40;;
57730;SDS011;43570;47.476;19.040;2023-03-01T03:51:03;16.50;;;12.10;;
57730;SDS011;43570;47.476;19.040;2023-03-01T03:53:32;16.80;;;11.98;;
57730;SDS011;43570;47.476;19.040;2023-03-01T03:55:58;16.37;;;11.95;;
57730;SDS011;43570;47.476;19.040;2023-03-01T03:58:24;16.45;;;12.02;;
57730;SDS011;43570;47.476;19.040;2023-03-01T04:00:54;16.65;;;12.00;;
57730;SDS011;43570;47.476;19.040;2023-03-01T04:03:21;15.60;;;11.88;;
57730;SDS011;43570;47.476;19.040;2023-03-01T04:05:47;14.82;;;11.95;;
57730;SDS011;43570;47.476;19.040;2023-03-01T04:08:15;16.92;;;13.48;;
57730;SDS011;43570;47.476;19.040;2023-03-01T04:10:43;17.42;;;13.73;;
57730;SDS011;43570;47.476;19.040;2023-03-01T04:13:10;19.40;;;13.57;;
57730;SDS011;43570;47.476;19.040;2023-03-01T04:15:37;17.85;;;13.57;;
57730;SDS011;43570;47.476;19.040;2023-03-01T04:18:04;17.55;;;13.05;;
57730;SDS011;43570;47.476;19.040;2023-03-01T04:20:30;16.62;;;12.63;;
57730;SDS011;43570;47.476;19.040;2023-03-01T04:23:20;17.80;;;13.00;;
57730;SDS011;43570;47.476;19.040;2023-03-01T04:25:55;18.58;;;14.00;;
57730;SDS011;43570;47.476;19.040;2023-03-01T04:28:32;16.77;;;13.88;;
57730;SDS011;43570;47.476;19.040;2023-03-01T04:31:03;19.12;;;13.05;;
57730;SDS011;43570;47.476;19.040;2023-03-01T04:33:40;18.55;;;13.32;;
57730;SDS011;43570;47.476;19.040;2023-03-01T04:36:06;15.88;;;12.23;;
57730;SDS011;43570;47.476;19.040;2023-03-01T04:38:33;19.35;;;13.02;;
57730;SDS011;43570;47.476;19.040;2023-03-01T04:40:59;16.40;;;11.80;;
57730;SDS011;43570;47.476;19.040;2023-03-01T04:43:24;17.00;;;12.80;;
57730;SDS011;43570;47.476;19.040;2023-03-01T04:45:50;15.60;;;12.37;;
57730;SDS011;43570;47.476;19.040;2023-03-01T04:48:15;18.35;;;13.20;;
57730;SDS011;43570;47.476;19.040;2023-03-01T04:50:41;17.33;;;13.25;;
57730;SDS011;43570;47.476;19.040;2023-03-01T04:53:06;16.98;;;12.93;;
57730;SDS011;43570;47.476;19.040;2023-03-01T04:55:31;18.33;;;13.30;;
57730;SDS011;43570;47.476;19.040;2023-03-01T04:57:57;15.40;;;12.07;;
57730;SDS011;43570;47.476;19.040;2023-03-01T05:00:22;16.60;;;12.85;;
57730;SDS011;43570;47.476;19.040;2023-03-01T05:02:49;16.12;;;12.10;;
57730;SDS011;43570;47.476;19.040;2023-03-01T05:05:18;18.17;;;13.18;;
57730;SDS011;43570;47.476;19.040;2023-03-01T05:07:54;17.23;;;12.98;;
57730;SDS011;43570;47.476;19.040;2023-03-01T05:10:21;15.77;;;11.77;;
57730;SDS011;43570;47.476;19.040;2023-03-01T05:12:47;19.25;;;12.98;;
57730;SDS011;43570;47.476;19.040;2023-03-01T05:15:12;16.17;;;12.55;;
57730;SDS011;43570;47.476;19.040;2023-03-01T05:17:38;16.92;;;12.75;;
57730;SDS011;43570;47.476;19.040;2023-03-01T05:20:03;16.75;;;13.00;;
57730;SDS011;43570;47.476;19.040;2023-03-01T05:22:33;19.35;;;13.77;;
57730;SDS011;43570;47.476;19.040;2023-03-01T05:24:59;15.77;;;12.32;;
57730;SDS011;43570;47.476;19.040;2023-03-01T05:27:24;17.48;;;13.65;;
57730;SDS011;43570;47.476;19.040;2023-03-01T05:29:49;15.63;;;12.88;;
57730;SDS011;43570;47.476;19.040;2023-03-01T05:32:15;17.35;;;12.77;;
57730;SDS011;43570;47.476;19.040;2023-03-01T05:34:41;17.17;;;12.82;;
57730;SDS011;43570;47.476;19.040;2023-03-01T05:37:07;19.27;;;13.30;;
57730;SDS011;43570;47.476;19.040;2023-03-01T05:39:32;15.65;;;12.30;;
57730;SDS011;43570;47.476;19.040;2023-03-01T05:41:59;17.17;;;13.80;;
57730;SDS011;43570;47.476;19.040;2023-03-01T05:44:26;19.33;;;13.40;;
57730;SDS011;43570;47.476;19.040;2023-03-01T05:46:53;16.58;;;12.77;;
57730;SDS011;43570;47.476;19.040;2023-03-01T05:49:18;16.08;;;13.27;;
57730;SDS011;43570;47.476;19.040;2023-03-01T05:51:47;18.23;;;12.65;;
57730;SDS011;43570;47.476;19.040;2023-03-01T05:54:14;16.08;;;12.75;;
57730;SDS011;43570;47.476;19.040;2023-03-01T05:56:39;16.40;;;12.07;;
57730;SDS011;43570;47.476;19.040;2023-03-01T05:59:05;16.35;;;12.18;;
57730;SDS011;43570;47.476;19.040;2023-03-01T06:01:31;16.08;;;11.70;;
57730;SDS011;43570;47.476;19.040;2023-03-01T06:03:57;17.52;;;12.13;;
57730;SDS011;43570;47.476;19.040;2023-03-01T06:06:22;15.52;;;11.88;;
57730;SDS011;43570;47.476;19.040;2023-03-01T06:08:49;20.65;;;12.73;;
57730;SDS011;43570;47.476;19.040;2023-03-01T06:11:14;17.15;;;12.90;;
57730;SDS011;43570;47.476;19.040;2023-03-01T06:13:41;17.35;;;12.48;;
57730;SDS011;43570;47.476;19.040;2023-03-01T06:16:07;18.62;;;12.55;;
57730;SDS011;43570;47.476;19.040;2023-03-01T06:18:32;16.95;;;13.18;;
57730;SDS011;43570;47.476;19.040;2023-03-01T06:20:58;18.67;;;12.85;;
57730;SDS011;43570;47.476;19.040;2023-03-01T06:23:23;18.55;;;13.32;;
57730;SDS011;43570;47.476;19.040;2023-03-01T06:25:51;19.60;;;14.52;;
57730;SDS011;43570;47.476;19.040;2023-03-01T06:28:17;19.95;;;13.88;;
57730;SDS011;43570;47.476;19.040;2023-03-01T06:30:42;18.73;;;13.75;;
57730;SDS011;43570;47.476;19.040;2023-03-01T06:33:08;18.50;;;14.75;;
57730;SDS011;43570;47.476;19.040;2023-03-01T06:35:33;19.00;;;15.13;;
57730;SDS011;43570;47.476;19.040;2023-03-01T06:37:59;18.55;;;14.35;;
57730;SDS011;43570;47.476;19.040;2023-03-01T06:40:26;18.45;;;14.02;;
57730;SDS011;43570;47.476;19.040;2023-03-01T06:42:51;21.10;;;14.23;;
57730;SDS011;43570;47.476;19.040;2023-03-01T06:45:18;20.12;;;14.50;;
57730;SDS011;43570;47.476;19.040;2023-03-01T06:47:44;18.65;;;14.68;;
57730;SDS011;43570;47.476;19.040;2023-03-01T06:50:10;20.02;;;14.87;;
57730;SDS011;43570;47.476;19.040;2023-03-01T06:52:36;17.37;;;13.48;;
57730;SDS011;43570;47.476;19.040;2023-03-01T06:55:01;17.40;;;13.32;;
57730;SDS011;43570;47.476;19.040;2023-03-01T06:57:27;16.45;;;11.98;;
57730;SDS011;43570;47.476;19.040;2023-03-01T06:59:52;16.95;;;12.60;;
57730;SDS011;43570;47.476;19.040;2023-03-01T07:02:18;24.08;;;12.85;;
57730;SDS011;43570;47.476;19.040;2023-03-01T07:04:44;17.17;;;13.10;;
57730;SDS011;43570;47.476;19.040;2023-03-01T07:07:09;17.52;;;13.40;;
57730;SDS011;43570;47.476;19.040;2023-03-01T07:09:35;17.42;;;13.45;;
57730;SDS011;43570;47.476;19.040;2023-03-01T07:12:01;16.67;;;11.98;;
57730;SDS011;43570;47.476;19.040;2023-03-01T07:14:26;17.12;;;13.40;;
57730;SDS011;43570;47.476;19.040;2023-03-01T07:16:52;17.48;;;12.75;;
57730;SDS011;43570;47.476;19.040;2023-03-01T07:19:18;15.85;;;12.48;;
57730;SDS011;43570;47.476;19.040;2023-03-01T07:21:44;19.25;;;13.50;;
57730;SDS011;43570;47.476;19.040;2023-03-01T07:24:09;18.95;;;14.05;;
57730;SDS011;43570;47.476;19.040;2023-03-01T07:26:35;21.95;;;14.00;;
57730;SDS011;43570;47.476;19.040;2023-03-01T07:29:01;20.02;;;15.18;;
57730;SDS011;43570;47.476;19.040;2023-03-01T07:31:27;18.75;;;13.65;;
57730;SDS011;43570;47.476;19.040;2023-03-01T07:33:54;19.90;;;13.88;;
57730;SDS011;43570;47.476;19.040;2023-03-01T07:36:19;19.37;;;15.15;;
57730;SDS011;43570;47.476;19.040;2023-03-01T07:38:45;21.62;;;13.27;;
57730;SDS011;43570;47.476;19.040;2023-03-01T07:41:10;15.57;;;13.05;;
57730;SDS011;43570;47.476;19.040;2023-03-01T07:43:36;19.80;;;14.38;;
57730;SDS011;43570;47.476;19.040;2023-03-01T07:46:01;20.45;;;13.90;;
57730;SDS011;43570;47.476;19.040;2023-03-01T07:48:28;20.23;;;14.48;;
57730;SDS011;43570;47.476;19.040;2023-03-01T07:50:57;18.23;;;14.27;;
57730;SDS011;43570;47.476;19.040;2023-03-01T07:53:23;19.17;;;14.18;;
57730;SDS011;43570;47.476;19.040;2023-03-01T07:55:49;20.77;;;13.85;;
57730;SDS011;43570;47.476;19.040;2023-03-01T07:58:14;19.00;;;14.13;;
57730;SDS011;43570;47.476;19.040;2023-03-01T08:00:39;20.15;;;14.35;;
57730;SDS011;43570;47.476;19.040;2023-03-01T08:03:05;21.23;;;13.45;;
57730;SDS011;43570;47.476;19.040;2023-03-01T08:05:30;18.23;;;14.10;;
57730;SDS011;43570;47.476;19.040;2023-03-01T08:07:56;20.83;;;15.38;;
57730;SDS011;43570;47.476;19.040;2023-03-01T08:10:21;20.02;;;15.18;;
57730;SDS011;43570;47.476;19.040;2023-03-01T08:12:46;19.52;;;14.23;;
57730;SDS011;43570;47.476;19.040;2023-03-01T08:15:12;20.77;;;14.35;;
57730;SDS011;43570;47.476;19.040;2023-03-01T08:17:37;21.60;;;14.95;;
57730;SDS011;43570;47.476;19.040;2023-03-01T08:20:03;18.20;;;14.57;;
57730;SDS011;43570;47.476;19.040;2023-03-01T08:22:32;19.00;;;14.10;;
57730;SDS011;43570;47.476;19.040;2023-03-01T08:24:57;19.60;;;15.27;;
57730;SDS011;43570;47.476;19.040;2023-03-01T08:27:23;19.52;;;14.15;;
57730;SDS011;43570;47.476;19.040;2023-03-01T08:29:48;18.60;;;14.13;;
57730;SDS011;43570;47.476;19.040;2023-03-01T08:32:13;20.33;;;14.87;;
57730;SDS011;43570;47.476;19.040;2023-03-01T08:34:39;19.92;;;14.30;;
57730;SDS011;43570;47.476;19.040;2023-03-01T08:37:04;18.02;;;13.85;;
57730;SDS011;43570;47.476;19.040;2023-03-01T08:39:29;17.20;;;14.00;;
57730;SDS011;43570;47.476;19.040;2023-03-01T08:41:55;23.75;;;19.10;;
57730;SDS011;43570;47.476;19.040;2023-03-01T08:44:20;20.25;;;13.50;;
57730;SDS011;43570;47.476;19.040;2023-03-01T08:46:46;15.57;;;12.40;;
57730;SDS011;43570;47.476;19.040;2023-03-01T08:49:13;17.52;;;12.57;;
57730;SDS011;43570;47.476;19.040;2023-03-01T08:51:40;19.50;;;13.80;;
57730;SDS011;43570;47.476;19.040;2023-03-01T08:54:09;17.90;;;12.82;;
57730;SDS011;43570;47.476;19.040;2023-03-01T08:56:36;16.73;;;12.98;;
57730;SDS011;43570;47.476;19.040;2023-03-01T08:59:01;19.58;;;14.27;;
57730;SDS011;43570;47.476;19.040;2023-03-01T09:01:27;17.83;;;13.27;;
57730;SDS011;43570;47.476;19.040;2023-03-01T09:03:53;16.52;;;12.73;;
57730;SDS011;43570;47.476;19.040;2023-03-01T09:06:18;15.75;;;12.75;;
57730;SDS011;43570;47.476;19.040;2023-03-01T09:08:44;17.67;;;13.32;;
57730;SDS011;43570;47.476;19.040;2023-03-01T09:11:12;19.33;;;13.13;;
57730;SDS011;43570;47.476;19.040;2023-03-01T09:13:40;14.85;;;12.88;;
57730;SDS011;43570;47.476;19.040;2023-03-01T09:16:06;18.60;;;13.55;;
57730;SDS011;43570;47.476;19.040;2023-03-01T09:18:32;20.85;;;12.90;;
57730;SDS011;43570;47.476;19.040;2023-03-01T09:21:09;16.45;;;12.80;;
57730;SDS011;43570;47.476;19.040;2023-03-01T09:23:37;17.80;;;13.85;;
57730;SDS011;43570;47.476;19.040;2023-03-01T09:26:04;16.60;;;12.65;;
57730;SDS011;43570;47.476;19.040;2023-03-01T09:28:30;17.58;;;13.93;;
57730;SDS011;43570;47.476;19.040;2023-03-01T09:30:59;16.77;;;13.20;;
57730;SDS011;43570;47.476;19.040;2023-03-01T09:33:25;21.12;;;14.68;;
57730;SDS011;43570;47.476;19.040;2023-03-01T09:35:58;16.25;;;12.90;;
57730;SDS011;43570;47.476;19.040;2023-03-01T09:38:27;19.92;;;14.07;;
57730;SDS011;43570;47.476;19.040;2023-03-01T09:40:53;17.27;;;13.55;;
57730;SDS011;43570;47.476;19.040;2023-03-01T09:46:09;21.02;;;13.95;;
57730;SDS011;43570;47.476;19.040;2023-03-01T09:48:52;16.15;;;13.15;;
57730;SDS011;43570;47.476;19.040;2023-03-01T09:51:29;17.67;;;13.93;;
57730;SDS011;43570;47.476;19.040;2023-03-01T09:53:56;16.40;;;12.65;;
57730;SDS011;43570;47.476;19.040;2023-03-01T09:56:34;19.48;;;13.93;;
57730;SDS011;43570;47.476;19.040;2023-03-01T10:01:46;21.37;;;14.45;;
57730;SDS011;43570;47.476;19.040;2023-03-01T10:09:36;16.92;;;12.70;;
57730;SDS011;43570;47.476;19.040;2023-03-01T10:12:04;17.87;;;14.00;;
57730;SDS011;43570;47.476;19.040;2023-03-01T10:14:54;16.70;;;13.25;;
57730;SDS011;43570;47.476;19.040;2023-03-01T10:17:37;20.75;;;12.68;;
57730;SDS011;43570;47.476;19.040;2023-03-01T10:20:21;17.60;;;13.50;;
57730;SDS011;43570;47.476;19.040;2023-03-01T10:22:51;18.10;;;13.52;;
57730;SDS011;43570;47.476;19.040;2023-03-01T10:25:23;25.00;;;14.13;;
57730;SDS011;43570;47.476;19.040;2023-03-01T10:28:03;18.90;;;13.98;;
57730;SDS011;43570;47.476;19.040;2023-03-01T10:30:50;17.42;;;13.60;;
57730;SDS011;43570;47.476;19.040;2023-03-01T10:33:21;15.60;;;12.82;;
57730;SDS011;43570;47.476;19.040;2023-03-01T10:35:48;18.70;;;13.18;;
57730;SDS011;43570;47.476;19.040;2023-03-01T10:38:14;18.25;;;14.30;;
57730;SDS011;43570;47.476;19.040;2023-03-01T10:43:24;16.65;;;14.07;;
57730;SDS011;43570;47.476;19.040;2023-03-01T10:45:54;18.85;;;13.65;;
57730;SDS011;43570;47.476;19.040;2023-03-01T10:48:21;15.70;;;13.50;;
57730;SDS011;43570;47.476;19.040;2023-03-01T10:51:12;15.48;;;13.77;;
57730;SDS011;43570;47.476;19.040;2023-03-01T10:53:38;15.88;;;13.23;;
57730;SDS011;43570;47.476;19.040;2023-03-01T10:56:07;16.58;;;12.77;;
57730;SDS011;43570;47.476;19.040;2023-03-01T10:58:38;15.85;;;12.23;;
57730;SDS011;43570;47.476;19.040;2023-03-01T11:01:06;15.35;;;13.13;;
57730;SDS011;43570;47.476;19.040;2023-03-01T11:04:07;14.23;;;11.98;;
57730;SDS011;43570;47.476;19.040;2023-03-01T11:06:37;14.93;;;11.10;;
57730;SDS011;43570;47.476;19.040;2023-03-01T11:11:46;15.55;;;11.93;;
57730;SDS011;43570;47.476;19.040;2023-03-01T11:14:15;14.10;;;11.63;;
57730;SDS011;43570;47.476;19.040;2023-03-01T11:16:47;14.80;;;11.55;;
57730;SDS011;43570;47.476;19.040;2023-03-01T11:19:19;15.55;;;11.88;;
57730;SDS011;43570;47.476;19.040;2023-03-01T11:21:54;14.13;;;11.50;;
57730;SDS011;43570;47.476;19.040;2023-03-01T11:24:25;18.42;;;14.15;;
57730;SDS011;43570;47.476;19.040;2023-03-01T11:26:54;15.85;;;11.88;;
57730;SDS011;43570;47.476;19.040;2023-03-01T11:32:04;15.75;;;11.90;;
57730;SDS011;43570;47.476;19.040;2023-03-01T11:34:35;16.23;;;11.35;;
57730;SDS011;43570;47.476;19.040;2023-03-01T11:37:07;16.65;;;11.95;;
57730;SDS011;43570;47.476;19.040;2023-03-01T11:40:00;15.07;;;10.70;;
57730;SDS011;43570;47.476;19.040;2023-03-01T11:45:31;13.23;;;10.52;;
57730;SDS011;43570;47.476;19.040;2023-03-01T11:50:47;12.07;;;10.07;;
57730;SDS011;43570;47.476;19.040;2023-03-01T11:55:57;13.25;;;10.18;;
57730;SDS011;43570;47.476;19.040;2023-03-01T11:58:32;16.80;;;11.57;;
57730;SDS011;43570;47.476;19.040;2023-03-01T12:01:09;16.25;;;10.95;;
57730;SDS011;43570;47.476;19.040;2023-03-01T12:12:00;13.25;;;10.90;;
57730;SDS011;43570;47.476;19.040;2023-03-01T12:14:53;14.13;;;11.00;;
57730;SDS011;43570;47.476;19.040;2023-03-01T12:25:38;15.65;;;11.90;;
57730;SDS011;43570;47.476;19.040;2023-03-01T12:28:43;13.68;;;10.95;;
57730;SDS011;43570;47.476;19.040;2023-03-01T12:50:20;16.12;;;11.55;;
57730;SDS011;43570;47.476;19.040;2023-03-01T12:52:51;13.52;;;10.43;;
57730;SDS011;43570;47.476;19.040;2023-03-01T12:55:39;12.30;;;9.80;;
57730;SDS011;43570;47.476;19.040;2023-03-01T13:03:42;16.23;;;11.27;;
57730;SDS011;43570;47.476;19.040;2023-03-01T13:09:11;18.35;;;12.10;;
57730;SDS011;43570;47.476;19.040;2023-03-01T13:11:44;14.35;;;10.45;;
57730;SDS011;43570;47.476;19.040;2023-03-01T13:16:47;14.23;;;10.13;;
57730;SDS011;43570;47.476;19.040;2023-03-01T13:21:46;13.18;;;9.50;;
57730;SDS011;43570;47.476;19.040;2023-03-01T13:29:45;15.88;;;9.13;;
57730;SDS011;43570;47.476;19.040;2023-03-01T13:32:23;14.50;;;9.55;;
57730;SDS011;43570;47.476;19.040;2023-03-01T13:34:54;12.43;;;8.80;;
57730;SDS011;43570;47.476;19.040;2023-03-01T13:37:23;14.13;;;9.10;;
57730;SDS011;43570;47.476;19.040;2023-03-01T13:39:51;12.23;;;9.45;;
57730;SDS011;43570;47.476;19.040;2023-03-01T13:44:54;12.52;;;9.23;;
57730;SDS011;43570;47.476;19.040;2023-03-01T13:47:20;10.52;;;8.40;;
57730;SDS011;43570;47.476;19.040;2023-03-01T13:52:30;11.73;;;10.18;;
57730;SDS011;43570;47.476;19.040;2023-03-01T13:54:57;16.30;;;9.32;;
57730;SDS011;43570;47.476;19.040;2023-03-01T13:57:23;13.02;;;7.03;;
57730;SDS011;43570;47.476;19.040;2023-03-01T13:59:51;10.65;;;6.80;;
57730;SDS011;43570;47.476;19.040;2023-03-01T14:02:17;8.63;;;6.00;;
57730;SDS011;43570;47.476;19.040;2023-03-01T14:04:42;11.70;;;6.15;;
57730;SDS011;43570;47.476;19.040;2023-03-01T14:07:28;9.38;;;6.18;;
57730;SDS011;43570;47.476;19.040;2023-03-01T14:09:58;10.80;;;6.40;;
57730;SDS011;43570;47.476;19.040;2023-03-01T14:15:28;7.65;;;5.78;;
57730;SDS011;43570;47.476;19.040;2023-03-01T14:20:39;9.13;;;6.45;;
57730;SDS011;43570;47.476;19.040;2023-03-01T14:23:11;12.73;;;7.07;;
57730;SDS011;43570;47.476;19.040;2023-03-01T14:25:38;10.77;;;6.72;;
57730;SDS011;43570;47.476;19.040;2023-03-01T14:30:45;9.82;;;5.82;;
57730;SDS011;43570;47.476;19.040;2023-03-01T14:35:53;9.60;;;6.57;;
57730;SDS011;43570;47.476;19.040;2023-03-01T14:38:23;10.23;;;6.15;;
57730;SDS011;43570;47.476;19.040;2023-03-01T14:41:10;8.93;;;5.68;;
57730;SDS011;43570;47.476;19.040;2023-03-01T14:43:41;12.68;;;6.82;;
57730;SDS011;43570;47.476;19.040;2023-03-01T14:46:24;10.57;;;6.77;;
57730;SDS011;43570;47.476;19.040;2023-03-01T14:48:53;8.40;;;5.87;;
57730;SDS011;43570;47.476;19.040;2023-03-01T14:51:20;10.55;;;5.82;;
57730;SDS011;43570;47.476;19.040;2023-03-01T14:53:46;9.23;;;5.82;;
57730;SDS011;43570;47.476;19.040;2023-03-01T14:56:13;9.52;;;5.20;;
57730;SDS011;43570;47.476;19.040;2023-03-01T14:58:40;14.00;;;5.85;;
57730;SDS011;43570;47.476;19.040;2023-03-01T15:01:06;9.43;;;5.22;;
57730;SDS011;43570;47.476;19.040;2023-03-01T15:03:34;10.40;;;5.30;;
57730;SDS011;43570;47.476;19.040;2023-03-01T15:06:05;9.23;;;5.80;;
57730;SDS011;43570;47.476;19.040;2023-03-01T15:08:31;9.40;;;5.40;;
57730;SDS011;43570;47.476;19.040;2023-03-01T15:11:03;10.00;;;6.55;;
57730;SDS011;43570;47.476;19.040;2023-03-01T15:13:38;9.98;;;5.15;;
57730;SDS011;43570;47.476;19.040;2023-03-01T15:18:30;8.55;;;5.30;;
57730;SDS011;43570;47.476;19.040;2023-03-01T15:21:04;9.00;;;5.35;;
57730;SDS011;43570;47.476;19.040;2023-03-01T15:24:04;9.48;;;5.60;;
57730;SDS011;43570;47.476;19.040;2023-03-01T15:26:41;10.07;;;6.25;;
57730;SDS011;43570;47.476;19.040;2023-03-01T15:29:12;8.77;;;5.70;;
57730;SDS011;43570;47.476;19.040;2023-03-01T15:31:42;9.98;;;5.72;;
57730;SDS011;43570;47.476;19.040;2023-03-01T15:36:47;10.30;;;5.93;;
57730;SDS011;43570;47.476;19.040;2023-03-01T15:42:02;10.82;;;5.80;;
57730;SDS011;43570;47.476;19.040;2023-03-01T15:44:36;7.78;;;5.30;;
57730;SDS011;43570;47.476;19.040;2023-03-01T15:47:08;8.80;;;5.03;;
57730;SDS011;43570;47.476;19.040;2023-03-01T15:49:51;9.38;;;6.10;;
57730;SDS011;43570;47.476;19.040;2023-03-01T15:52:21;12.60;;;5.78;;
57730;SDS011;43570;47.476;19.040;2023-03-01T15:54:55;11.52;;;6.20;;
57730;SDS011;43570;47.476;19.040;2023-03-01T15:57:24;12.50;;;6.45;;
57730;SDS011;43570;47.476;19.040;2023-03-01T15:59:50;12.68;;;6.40;;
57730;SDS011;43570;47.476;19.040;2023-03-01T16:02:15;9.32;;;5.60;;
57730;SDS011;43570;47.476;19.040;2023-03-01T16:04:41;9.65;;;5.72;;
57730;SDS011;43570;47.476;19.040;2023-03-01T16:07:08;8.25;;;5.47;;
57730;SDS011;43570;47.476;19.040;2023-03-01T16:09:34;12.48;;;6.15;;
57730;SDS011;43570;47.476;19.040;2023-03-01T16:12:00;10.45;;;6.72;;
57730;SDS011;43570;47.476;19.040;2023-03-01T16:14:26;9.93;;;5.78;;
57730;SDS011;43570;47.476;19.040;2023-03-01T16:16:52;13.38;;;6.40;;
57730;SDS011;43570;47.476;19.040;2023-03-01T16:19:17;13.70;;;7.15;;
57730;SDS011;43570;47.476;19.040;2023-03-01T16:21:43;9.73;;;6.25;;
57730;SDS011;43570;47.476;19.040;2023-03-01T16:24:12;12.63;;;6.22;;